Wetterdaten: Woche 26.05.14 - 01.06.14 (KW22)
Datum Zeit Temp. A. Feuchte A. Luftdruck Regen Wind Richtung Taupunkt Windchill Windben
26.05.2014 00:00 17,5 C 76 % 1016,4 hPa 0,0 l/m 0,1 km/h N 13,2 C 17,5 C 0,8 km/h
26.05.2014 01:00 17,2 C 76 % 1016,0 hPa 0,0 l/m 0,6 km/h N 12,9 C 17,2 C 4,0 km/h
26.05.2014 02:00 17,0 C 76 % 1015,6 hPa 0,0 l/m 0,8 km/h N 12,7 C 17,0 C 4,0 km/h
26.05.2014 03:00 16,8 C 77 % 1015,4 hPa 0,0 l/m 0,1 km/h N 12,7 C 16,8 C 2,0 km/h
26.05.2014 04:00 16,1 C 79 % 1015,2 hPa 0,0 l/m 0,1 km/h N 12,5 C 16,1 C 1,6 km/h
26.05.2014 05:00 15,7 C 81 % 1015,2 hPa 0,0 l/m 0,2 km/h N 12,5 C 15,7 C 2,0 km/h
26.05.2014 06:00 15,8 C 82 % 1015,1 hPa 0,0 l/m 0,0 km/h N 12,7 C 15,8 C 1,6 km/h
26.05.2014 07:00 16,4 C 82 % 1015,0 hPa 0,0 l/m 0,0 km/h N 13,2 C 16,4 C 2,4 km/h
26.05.2014 08:00 17,0 C 79 % 1015,0 hPa 0,0 l/m 0,8 km/h N 13,2 C 17,0 C 5,6 km/h
26.05.2014 09:00 17,8 C 76 % 1015,1 hPa 0,0 l/m 0,8 km/h N 13,5 C 17,8 C 5,6 km/h
26.05.2014 10:00 19,9 C 71 % 1014,8 hPa 0,0 l/m 2,4 km/h N 14,5 C 19,9 C 8,9 km/h
26.05.2014 11:00 21,5 C 69 % 1014,2 hPa 0,0 l/m 1,6 km/h N 15,5 C 21,5 C 8,0 km/h
26.05.2014 12:00 23,7 C 65 % 1013,6 hPa 0,0 l/m 1,6 km/h N 16,5 C 23,7 C 7,2 km/h
26.05.2014 13:00 24,8 C 64 % 1012,5 hPa 0,0 l/m 1,6 km/h N 17,3 C 24,8 C 12,9 km/h
26.05.2014 14:00 25,4 C 60 % 1011,4 hPa 0,0 l/m 1,6 km/h N 16,9 C 25,4 C 9,6 km/h
26.05.2014 15:00 25,3 C 61 % 1010,8 hPa 0,0 l/m 1,6 km/h N 17,0 C 25,3 C 12,1 km/h
26.05.2014 16:00 24,5 C 63 % 1010,0 hPa 0,0 l/m 1,6 km/h N 16,9 C 24,5 C 10,5 km/h
26.05.2014 17:00 24,5 C 60 % 1009,3 hPa 0,0 l/m 0,8 km/h N 16,3 C 24,5 C 7,2 km/h
26.05.2014 18:00 25,2 C 59 % 1009,0 hPa 0,0 l/m 0,7 km/h N 16,6 C 25,2 C 9,1 km/h
26.05.2014 19:00 21,9 C 72 % 1009,2 hPa 3,9 l/m 3,1 km/h N 16,6 C 21,9 C 14,1 km/h
26.05.2014 20:00 18,9 C 83 % 1009,3 hPa 0,5 l/m 1,5 km/h N 15,9 C 18,9 C 7,3 km/h
26.05.2014 21:00 18,0 C 83 % 1009,5 hPa 0,0 l/m 0,1 km/h N 15,0 C 18,0 C 1,6 km/h
26.05.2014 22:00 17,3 C 82 % 1009,3 hPa 0,0 l/m 0,0 km/h N 14,2 C 17,3 C 0,0 km/h
26.05.2014 23:00 16,6 C 82 % 1009,0 hPa 0,0 l/m 0,0 km/h N 13,5 C 16,6 C 0,0 km/h
27.05.2014 00:00 16,5 C 81 % 1008,7 hPa 0,0 l/m 0,0 km/h N 13,2 C 16,5 C 0,0 km/h
27.05.2014 01:00 16,0 C 81 % 1008,2 hPa 0,0 l/m 0,0 km/h N 12,6 C 16,0 C 0,0 km/h
27.05.2014 02:00 15,8 C 80 % 1008,0 hPa 0,0 l/m 0,0 km/h N 12,3 C 15,8 C 0,0 km/h
27.05.2014 03:00 15,8 C 79 % 1007,7 hPa 0,0 l/m 0,0 km/h N 12,1 C 15,8 C 0,0 km/h
27.05.2014 04:00 15,9 C 78 % 1007,1 hPa 0,0 l/m 0,0 km/h N 12,1 C 15,9 C 0,0 km/h
27.05.2014 05:00 15,6 C 78 % 1007,0 hPa 0,0 l/m 0,0 km/h N 11,8 C 15,6 C 0,0 km/h
27.05.2014 06:00 16,0 C 77 % 1007,4 hPa 0,0 l/m 0,0 km/h N 12,0 C 16,0 C 1,2 km/h
27.05.2014 07:00 16,3 C 76 % 1007,7 hPa 0,0 l/m 1,2 km/h N 12,0 C 16,3 C 6,8 km/h
27.05.2014 08:00 17,8 C 81 % 1007,9 hPa 0,0 l/m 2,2 km/h N 14,4 C 17,8 C 8,4 km/h
27.05.2014 09:00 19,5 C 78 % 1007,8 hPa 0,3 l/m 2,9 km/h N 15,5 C 19,5 C 9,3 km/h
27.05.2014 10:00 20,7 C 71 % 1007,5 hPa 0,0 l/m 3,2 km/h N 15,3 C 20,7 C 10,9 km/h
27.05.2014 11:00 21,5 C 67 % 1007,1 hPa 0,0 l/m 3,8 km/h N 15,1 C 21,5 C 12,9 km/h
27.05.2014 12:00 22,1 C 64 % 1006,8 hPa 0,0 l/m 3,5 km/h N 14,9 C 22,1 C 14,1 km/h
27.05.2014 13:00 23,0 C 61 % 1006,3 hPa 0,0 l/m 1,3 km/h N 15,1 C 23,0 C 7,7 km/h
27.05.2014 14:00 22,9 C 67 % 1005,8 hPa 0,0 l/m 1,6 km/h N 16,4 C 22,9 C 7,6 km/h
27.05.2014 15:00 20,5 C 69 % 1006,0 hPa 0,0 l/m 2,3 km/h N 14,6 C 20,5 C 14,5 km/h
27.05.2014 16:00 18,5 C 80 % 1006,3 hPa 0,0 l/m 5,2 km/h N 14,9 C 18,3 C 14,9 km/h
27.05.2014 17:00 18,3 C 74 % 1005,9 hPa 0,0 l/m 6,3 km/h N 13,5 C 18,1 C 18,9 km/h
27.05.2014 18:00 16,7 C 79 % 1006,5 hPa 2,3 l/m 1,8 km/h N 13,1 C 16,7 C 10,1 km/h
27.05.2014 19:00 15,0 C 83 % 1006,2 hPa 0,0 l/m 1,6 km/h N 12,2 C 15,0 C 8,9 km/h
27.05.2014 20:00 14,8 C 83 % 1006,2 hPa 0,0 l/m 1,3 km/h N 11,9 C 14,8 C 11,7 km/h
27.05.2014 21:00 14,6 C 83 % 1006,7 hPa 0,0 l/m 1,7 km/h N 11,7 C 14,6 C 11,6 km/h
27.05.2014 22:00 15,0 C 81 % 1006,8 hPa 0,0 l/m 2,8 km/h N 11,8 C 15,0 C 16,5 km/h
27.05.2014 23:00 14,7 C 81 % 1006,8 hPa 0,0 l/m 1,8 km/h N 11,4 C 14,7 C 14,9 km/h
28.05.2014 00:00 14,5 C 82 % 1006,9 hPa 0,0 l/m 1,2 km/h N 11,3 C 14,5 C 9,6 km/h
28.05.2014 01:00 14,6 C 81 % 1006,6 hPa 0,0 l/m 1,0 km/h N 11,4 C 14,6 C 10,9 km/h
28.05.2014 02:00 14,9 C 80 % 1006,5 hPa 0,0 l/m 2,7 km/h N 11,3 C 14,9 C 16,5 km/h
28.05.2014 03:00 14,9 C 77 % 1006,1 hPa 0,0 l/m 3,6 km/h N 11,0 C 14,9 C 22,5 km/h
28.05.2014 04:00 15,0 C 74 % 1006,0 hPa 0,0 l/m 3,0 km/h N 10,4 C 15,0 C 18,1 km/h
28.05.2014 05:00 14,8 C 73 % 1006,3 hPa 0,0 l/m 1,3 km/h N 10,0 C 14,8 C 10,1 km/h
28.05.2014 06:00 14,9 C 75 % 1006,8 hPa 0,0 l/m 0,6 km/h N 10,4 C 14,9 C 5,6 km/h
28.05.2014 07:00 15,0 C 76 % 1007,1 hPa 0,0 l/m 1,4 km/h N 10,7 C 15,0 C 8,9 km/h
28.05.2014 08:00 14,9 C 76 % 1007,3 hPa 0,3 l/m 1,5 km/h N 10,7 C 14,9 C 9,3 km/h
28.05.2014 09:00 14,9 C 76 % 1007,4 hPa 0,0 l/m 3,3 km/h N 10,7 C 14,9 C 10,9 km/h
28.05.2014 10:00 14,7 C 78 % 1007,5 hPa 0,0 l/m 3,2 km/h N 10,8 C 14,7 C 9,3 km/h
28.05.2014 11:00 15,0 C 79 % 1007,4 hPa 0,0 l/m 1,5 km/h N 11,3 C 15,0 C 10,1 km/h
28.05.2014 12:00 17,1 C 69 % 1007,2 hPa 0,0 l/m 7,8 km/h N 11,4 C 16,4 C 27,0 km/h
28.05.2014 13:00 18,1 C 65 % 1007,1 hPa 0,0 l/m 9,4 km/h N 11,4 C 16,9 C 30,6 km/h
28.05.2014 14:00 18,8 C 63 % 1006,9 hPa 0,0 l/m 14,5 km/h N 11,5 C 16,0 C 36,2 km/h
28.05.2014 15:00 17,7 C 65 % 1007,2 hPa 0,0 l/m 15,2 km/h N 11,0 C 14,4 C 37,4 km/h
28.05.2014 16:00 16,7 C 67 % 1007,6 hPa 0,0 l/m 12,0 km/h N 10,5 C 14,3 C 37,4 km/h
28.05.2014 17:00 16,1 C 68 % 1007,6 hPa 0,0 l/m 10,2 km/h N 10,3 C 14,3 C 36,6 km/h
28.05.2014 18:00 15,0 C 71 % 1007,8 hPa 0,0 l/m 9,5 km/h N 9,7 C 13,4 C 37,4 km/h
28.05.2014 19:00 14,4 C 71 % 1008,0 hPa 0,0 l/m 12,0 km/h N 9,2 C 11,6 C 36,2 km/h
28.05.2014 20:00 14,0 C 73 % 1008,3 hPa 0,0 l/m 11,8 km/h N 9,2 C 11,3 C 38,2 km/h
28.05.2014 21:00 13,8 C 75 % 1008,9 hPa 0,0 l/m 8,6 km/h N 9,5 C 12,5 C 33,0 km/h
28.05.2014 22:00 13,8 C 76 % 1009,0 hPa 0,0 l/m 10,0 km/h N 9,6 C 11,8 C 33,4 km/h
28.05.2014 23:00 13,6 C 77 % 1009,1 hPa 0,0 l/m 7,9 km/h N 9,7 C 12,7 C 32,6 km/h
29.05.2014 00:00 13,4 C 79 % 1009,5 hPa 0,0 l/m 5,1 km/h N 9,8 C 13,4 C 19,3 km/h
29.05.2014 01:00 13,4 C 79 % 1009,0 hPa 0,0 l/m 7,1 km/h N 9,7 C 13,0 C 24,5 km/h
29.05.2014 02:00 13,5 C 78 % 1008,8 hPa 0,0 l/m 9,6 km/h N 9,7 C 11,7 C 31,8 km/h
29.05.2014 03:00 13,6 C 78 % 1008,7 hPa 0,0 l/m 7,3 km/h N 9,8 C 13,0 C 25,8 km/h
29.05.2014 04:00 13,6 C 78 % 1008,7 hPa 0,0 l/m 10,2 km/h N 9,9 C 11,5 C 25,8 km/h
29.05.2014 05:00 13,7 C 78 % 1009,1 hPa 0,0 l/m 8,5 km/h N 9,9 C 12,3 C 26,2 km/h
29.05.2014 06:00 13,7 C 79 % 1009,3 hPa 0,0 l/m 7,1 km/h N 10,0 C 12,9 C 25,0 km/h
29.05.2014 07:00 13,9 C 79 % 1009,5 hPa 0,0 l/m 9,6 km/h N 10,3 C 12,2 C 28,2 km/h
29.05.2014 08:00 14,3 C 78 % 1009,9 hPa 0,0 l/m 8,9 km/h N 10,5 C 12,9 C 28,6 km/h
29.05.2014 09:00 14,6 C 77 % 1010,1 hPa 0,0 l/m 7,7 km/h N 10,6 C 13,7 C 22,5 km/h
29.05.2014 10:00 14,2 C 79 % 1010,4 hPa 0,0 l/m 7,9 km/h N 10,6 C 13,3 C 24,5 km/h
29.05.2014 11:00 13,9 C 80 % 1010,8 hPa 0,0 l/m 11,0 km/h N 10,5 C 11,5 C 26,5 km/h
29.05.2014 12:00 13,5 C 83 % 1010,8 hPa 2,1 l/m 8,7 km/h N 10,7 C 12,2 C 25,7 km/h
29.05.2014 13:00 13,3 C 84 % 1010,9 hPa 1,8 l/m 6,0 km/h N 10,7 C 13,2 C 22,9 km/h
29.05.2014 14:00 13,6 C 84 % 1010,7 hPa 0,8 l/m 6,8 km/h N 10,9 C 12,9 C 21,7 km/h
29.05.2014 15:00 14,3 C 82 % 1010,8 hPa 0,0 l/m 9,8 km/h N 11,3 C 12,5 C 25,8 km/h
29.05.2014 16:00 14,3 C 83 % 1011,1 hPa 0,5 l/m 7,4 km/h N 11,3 C 13,3 C 19,7 km/h
29.05.2014 17:00 14,3 C 84 % 1011,1 hPa 0,0 l/m 4,9 km/h N 11,6 C 14,3 C 14,9 km/h
29.05.2014 18:00 14,3 C 83 % 1011,3 hPa 0,0 l/m 3,3 km/h N 11,5 C 14,3 C 12,5 km/h
29.05.2014 19:00 13,6 C 84 % 1012,0 hPa 2,3 l/m 2,2 km/h N 10,8 C 13,6 C 9,3 km/h
29.05.2014 20:00 12,6 C 83 % 1012,4 hPa 0,0 l/m 2,2 km/h N 9,8 C 12,6 C 10,9 km/h
29.05.2014 21:00 11,5 C 84 % 1013,3 hPa 0,0 l/m 2,8 km/h N 8,9 C 11,5 C 12,1 km/h
29.05.2014 22:00 10,9 C 84 % 1013,8 hPa 0,0 l/m 3,0 km/h N 8,4 C 10,9 C 10,1 km/h
29.05.2014 23:00 10,1 C 84 % 1014,5 hPa 0,8 l/m 4,1 km/h N 7,6 C 10,1 C 15,7 km/h
30.05.2014 00:00 9,3 C 83 % 1014,8 hPa 0,0 l/m 1,8 km/h N 6,6 C 9,3 C 8,0 km/h
30.05.2014 01:00 9,2 C 83 % 1015,0 hPa 0,8 l/m 2,2 km/h N 6,4 C 9,2 C 8,4 km/h
30.05.2014 02:00 8,9 C 83 % 1015,1 hPa 0,8 l/m 2,1 km/h N 6,1 C 8,9 C 8,0 km/h
30.05.2014 03:00 8,6 C 83 % 1015,0 hPa 0,3 l/m 2,6 km/h N 5,8 C 8,6 C 11,3 km/h
30.05.2014 04:00 8,3 C 83 % 1015,1 hPa 0,0 l/m 2,9 km/h N 5,6 C 8,3 C 14,1 km/h
30.05.2014 05:00 8,2 C 84 % 1015,4 hPa 0,0 l/m 3,5 km/h N 5,7 C 8,2 C 12,9 km/h
30.05.2014 06:00 8,6 C 85 % 1015,8 hPa 0,0 l/m 5,6 km/h N 6,2 C 8,5 C 16,9 km/h
30.05.2014 07:00 9,5 C 84 % 1016,0 hPa 0,0 l/m 7,8 km/h N 6,9 C 8,5 C 20,9 km/h
30.05.2014 08:00 10,5 C 80 % 1016,3 hPa 0,0 l/m 8,1 km/h N 7,2 C 9,4 C 22,9 km/h
30.05.2014 09:00 11,3 C 77 % 1016,7 hPa 0,0 l/m 8,0 km/h N 7,3 C 10,2 C 21,3 km/h
30.05.2014 10:00 11,8 C 69 % 1016,8 hPa 0,0 l/m 8,5 km/h N 6,3 C 10,4 C 22,5 km/h
30.05.2014 11:00 12,9 C 63 % 1017,0 hPa 0,0 l/m 10,3 km/h N 6,0 C 10,6 C 29,4 km/h
30.05.2014 12:00 12,9 C 63 % 1017,3 hPa 0,0 l/m 9,3 km/h N 5,9 C 11,2 C 24,5 km/h
30.05.2014 13:00 14,1 C 60 % 1017,2 hPa 0,0 l/m 9,1 km/h N 6,5 C 12,6 C 23,7 km/h
30.05.2014 14:00 14,1 C 60 % 1017,5 hPa 0,0 l/m 9,4 km/h N 6,5 C 12,5 C 26,6 km/h
30.05.2014 15:00 14,0 C 61 % 1017,7 hPa 0,0 l/m 9,4 km/h N 6,7 C 12,3 C 28,6 km/h
30.05.2014 16:00 13,5 C 66 % 1017,8 hPa 0,0 l/m 9,3 km/h N 7,2 C 11,8 C 23,7 km/h
30.05.2014 17:00 13,2 C 70 % 1017,9 hPa 0,0 l/m 8,7 km/h N 7,8 C 11,8 C 24,9 km/h
30.05.2014 18:00 12,9 C 69 % 1017,8 hPa 0,0 l/m 8,0 km/h N 7,3 C 12,0 C 23,7 km/h
30.05.2014 19:00 12,7 C 70 % 1017,8 hPa 0,0 l/m 6,6 km/h N 7,3 C 12,5 C 19,7 km/h
30.05.2014 20:00 12,6 C 71 % 1018,1 hPa 0,0 l/m 5,7 km/h N 7,6 C 12,6 C 17,3 km/h
30.05.2014 21:00 12,2 C 73 % 1018,5 hPa 0,0 l/m 7,6 km/h N 7,4 C 11,3 C 22,1 km/h
30.05.2014 22:00 11,6 C 75 % 1018,6 hPa 0,0 l/m 6,9 km/h N 7,4 C 10,9 C 20,9 km/h
30.05.2014 23:00 11,6 C 76 % 1018,4 hPa 0,0 l/m 6,8 km/h N 7,4 C 11,0 C 19,7 km/h
31.05.2014 00:00 11,9 C 75 % 1018,4 hPa 0,0 l/m 9,2 km/h N 7,5 C 10,1 C 26,2 km/h
31.05.2014 01:00 11,6 C 76 % 1018,0 hPa 0,0 l/m 8,0 km/h N 7,4 C 10,6 C 20,9 km/h
31.05.2014 02:00 11,3 C 77 % 1017,8 hPa 0,0 l/m 9,9 km/h N 7,3 C 9,1 C 24,1 km/h
31.05.2014 03:00 11,1 C 77 % 1017,9 hPa 0,0 l/m 7,7 km/h N 7,2 C 10,0 C 20,1 km/h
31.05.2014 04:00 10,8 C 78 % 1017,9 hPa 0,0 l/m 8,6 km/h N 7,1 C 9,3 C 23,3 km/h
31.05.2014 05:00 11,0 C 78 % 1017,9 hPa 0,0 l/m 8,1 km/h N 7,3 C 9,8 C 21,7 km/h
31.05.2014 06:00 11,1 C 78 % 1018,0 hPa 0,0 l/m 7,1 km/h N 7,4 C 10,4 C 22,5 km/h
31.05.2014 07:00 11,9 C 77 % 1018,1 hPa 0,0 l/m 7,2 km/h N 7,9 C 11,4 C 21,7 km/h
31.05.2014 08:00 13,5 C 72 % 1018,0 hPa 0,0 l/m 8,5 km/h N 8,5 C 12,3 C 23,3 km/h
31.05.2014 09:00 14,9 C 68 % 1017,8 hPa 0,0 l/m 8,9 km/h N 9,0 C 13,5 C 23,7 km/h
31.05.2014 10:00 16,1 C 63 % 1017,6 hPa 0,0 l/m 8,6 km/h N 8,9 C 15,0 C 25,7 km/h
31.05.2014 11:00 16,9 C 59 % 1017,3 hPa 0,0 l/m 9,0 km/h N 8,7 C 15,6 C 24,1 km/h
31.05.2014 12:00 18,1 C 51 % 1016,8 hPa 0,0 l/m 8,6 km/h N 7,8 C 17,1 C 27,4 km/h
31.05.2014 13:00 18,0 C 51 % 1016,7 hPa 0,0 l/m 6,9 km/h N 7,7 C 17,6 C 21,3 km/h
31.05.2014 14:00 17,6 C 55 % 1016,7 hPa 0,0 l/m 6,4 km/h N 8,3 C 17,4 C 20,9 km/h
31.05.2014 15:00 15,5 C 67 % 1016,7 hPa 0,0 l/m 6,6 km/h N 9,3 C 15,2 C 20,1 km/h
31.05.2014 16:00 18,0 C 58 % 1016,0 hPa 0,0 l/m 8,6 km/h N 9,7 C 17,1 C 23,3 km/h
31.05.2014 17:00 18,5 C 56 % 1015,8 hPa 0,0 l/m 7,7 km/h N 9,5 C 18,0 C 21,7 km/h
31.05.2014 18:00 17,6 C 60 % 1015,8 hPa 0,0 l/m 11,4 km/h N 9,8 C 15,5 C 26,6 km/h
31.05.2014 19:00 15,4 C 65 % 1016,5 hPa 0,0 l/m 9,3 km/h N 8,8 C 13,9 C 24,9 km/h
31.05.2014 20:00 14,6 C 68 % 1016,4 hPa 0,0 l/m 6,9 km/h N 8,8 C 14,2 C 22,1 km/h
31.05.2014 21:00 13,9 C 70 % 1016,6 hPa 0,0 l/m 5,8 km/h N 8,4 C 13,9 C 22,1 km/h
31.05.2014 22:00 13,7 C 69 % 1016,7 hPa 0,0 l/m 7,0 km/h N 8,0 C 13,3 C 22,1 km/h
31.05.2014 23:00 14,0 C 67 % 1016,5 hPa 0,0 l/m 6,3 km/h N 8,0 C 14,0 C 24,5 km/h
01.06.2014 00:00 13,7 C 69 % 1016,3 hPa 0,0 l/m 5,3 km/h N 8,1 C 13,6 C 19,7 km/h
01.06.2014 01:00 14,0 C 67 % 1016,2 hPa 0,0 l/m 5,7 km/h N 8,0 C 13,9 C 18,5 km/h
01.06.2014 02:00 14,1 C 67 % 1016,2 hPa 0,0 l/m 7,7 km/h N 8,1 C 13,0 C 21,7 km/h
01.06.2014 03:00 13,8 C 68 % 1016,0 hPa 0,0 l/m 5,9 km/h N 8,1 C 13,7 C 18,1 km/h
01.06.2014 04:00 13,2 C 71 % 1015,8 hPa 0,0 l/m 6,3 km/h N 8,1 C 13,0 C 19,7 km/h
01.06.2014 05:00 13,1 C 72 % 1016,2 hPa 0,0 l/m 5,4 km/h N 8,1 C 13,1 C 17,3 km/h
01.06.2014 06:00 13,3 C 71 % 1016,4 hPa 0,0 l/m 5,3 km/h N 8,2 C 13,3 C 17,7 km/h
01.06.2014 07:00 13,6 C 71 % 1016,7 hPa 0,0 l/m 7,5 km/h N 8,4 C 13,0 C 19,7 km/h
01.06.2014 08:00 14,7 C 69 % 1016,6 hPa 0,0 l/m 8,4 km/h N 9,0 C 13,5 C 21,7 km/h
01.06.2014 09:00 15,7 C 66 % 1016,7 hPa 0,0 l/m 7,6 km/h N 9,3 C 15,0 C 22,5 km/h
01.06.2014 10:00 17,3 C 64 % 1016,6 hPa 0,0 l/m 7,1 km/h N 10,3 C 16,9 C 22,9 km/h
01.06.2014 11:00 17,8 C 61 % 1016,5 hPa 0,0 l/m 9,6 km/h N 10,2 C 16,4 C 25,8 km/h
01.06.2014 12:00 19,0 C 58 % 1016,1 hPa 0,0 l/m 8,1 km/h N 10,6 C 18,3 C 22,9 km/h
01.06.2014 13:00 19,7 C 53 % 1015,8 hPa 0,0 l/m 6,9 km/h N 9,7 C 19,4 C 23,7 km/h
01.06.2014 14:00 17,9 C 63 % 1016,0 hPa 0,0 l/m 8,0 km/h N 10,6 C 17,2 C 22,9 km/h
01.06.2014 15:00 19,6 C 57 % 1015,3 hPa 0,0 l/m 7,8 km/h N 10,8 C 19,0 C 25,3 km/h
01.06.2014 16:00 19,3 C 56 % 1015,2 hPa 0,0 l/m 7,1 km/h N 10,1 C 18,9 C 20,9 km/h
01.06.2014 17:00 19,6 C 56 % 1015,1 hPa 0,0 l/m 5,7 km/h N 10,5 C 19,5 C 18,5 km/h
01.06.2014 18:00 19,5 C 53 % 1015,0 hPa 0,0 l/m 8,0 km/h N 9,6 C 18,8 C 24,1 km/h
01.06.2014 19:00 17,3 C 58 % 1015,6 hPa 0,0 l/m 6,3 km/h N 8,8 C 17,1 C 18,1 km/h
01.06.2014 20:00 16,0 C 63 % 1015,8 hPa 0,0 l/m 4,3 km/h N 9,0 C 15,7 C 14,1 km/h
01.06.2014 21:00 14,9 C 67 % 1016,2 hPa 0,0 l/m 2,3 km/h N 8,9 C 14,9 C 10,5 km/h
01.06.2014 22:00 14,9 C 67 % 1016,4 hPa 0,0 l/m 2,8 km/h N 8,8 C 14,9 C 10,9 km/h
01.06.2014 23:00 14,8 C 66 % 1016,6 hPa 0,0 l/m 3,0 km/h N 8,5 C 14,8 C 9,3 km/h
Min-Datum _ 30.05.14 31.05.14 27.05.14 - 26.05.14 - 30.05.14 30.05.14 26.05.14
_ Min-Zeit 04:30 12:30 14:45 - 00:00 - 04:30 04:30 00:00
Minimum _ 8,2 C 47 % 1005,5 hPa - 0,0 km/h - 5,5 C 8,2 C 0,0 km/h
Max-Datum _ 26.05.14 29.05.14 30.05.14 26.05.14 28.05.14 - 26.05.14 26.05.14 28.05.14
_ Max-Zeit 14:30 23:15 21:45 19:45 15:45 - 13:30 18:30 16:45
Maximum _ 25,9 C 85 % 1018,8 hPa 3,9 l/m 18,4 km/h
N
- 18,3 C 25,7 C 46,7 km/h
N
Durchschnitt _ 15,4 C 73 % 1012,5 hPa #17,4 l/m 5,3 km/h N 10,4 C 14,9 C 17,3 km/h